createdAt,value
2022-12-20T00:01:19.697Z,15.68
2022-12-20T00:03:46.432Z,13.27
2022-12-20T00:06:13.409Z,14.10
2022-12-20T00:08:40.472Z,15.50
2022-12-20T00:11:08.403Z,13.48
2022-12-20T00:13:35.304Z,16.02
2022-12-20T00:16:08.890Z,11.18
2022-12-20T00:18:36.670Z,11.98
2022-12-20T00:21:04.593Z,12.35
2022-12-20T00:23:31.385Z,14.52
2022-12-20T00:26:07.084Z,12.85
2022-12-20T00:28:34.888Z,10.95
2022-12-20T00:31:01.953Z,10.77
2022-12-20T00:33:29.033Z,15.88
2022-12-20T00:35:56.507Z,15.65
2022-12-20T00:38:24.453Z,13.18
2022-12-20T00:41:12.238Z,10.75
2022-12-20T00:43:39.747Z,9.43
2022-12-20T00:46:08.210Z,11.15
2022-12-20T00:48:35.360Z,11.27
2022-12-20T00:51:10.257Z,11.15
2022-12-20T00:56:04.279Z,8.77
2022-12-20T00:58:32.828Z,8.30
2022-12-20T01:00:59.651Z,12.85
2022-12-20T01:03:27.485Z,14.45
2022-12-20T01:05:57.139Z,10.30
2022-12-20T01:08:24.347Z,8.27
2022-12-20T01:11:10.927Z,9.75
2022-12-20T01:13:39.854Z,9.85
2022-12-20T01:16:17.147Z,10.73
2022-12-20T01:18:43.914Z,12.00
2022-12-20T01:21:12.932Z,14.38
2022-12-20T01:23:39.938Z,13.35
2022-12-20T01:26:08.535Z,15.35
2022-12-20T01:28:36.192Z,22.92
2022-12-20T01:31:02.631Z,13.27
2022-12-20T01:33:28.963Z,9.63
2022-12-20T01:36:04.228Z,11.57
2022-12-20T01:38:31.387Z,12.63
2022-12-20T01:40:57.775Z,9.98
2022-12-20T01:43:26.402Z,8.50
2022-12-20T01:45:52.867Z,8.32
2022-12-20T01:48:25.342Z,9.82
2022-12-20T01:50:52.507Z,7.93
2022-12-20T01:53:22.828Z,7.72
2022-12-20T01:55:49.565Z,6.25
2022-12-20T01:58:19.720Z,5.70
2022-12-20T02:00:46.559Z,6.22
2022-12-20T02:03:14.753Z,7.32
2022-12-20T02:05:43.912Z,6.88
2022-12-20T02:08:11.582Z,5.78
2022-12-20T02:10:49.827Z,9.70
2022-12-20T02:13:32.053Z,7.60
2022-12-20T02:15:59.342Z,8.43
2022-12-20T02:18:31.315Z,6.00
2022-12-20T02:21:27.994Z,8.18
2022-12-20T02:24:03.109Z,7.28
2022-12-20T02:26:41.504Z,8.35
2022-12-20T02:29:25.947Z,9.38
2022-12-20T02:32:00.570Z,5.63
2022-12-20T02:34:29.059Z,6.47
2022-12-20T02:36:55.437Z,5.70
2022-12-20T02:39:24.891Z,6.10
2022-12-20T02:41:55.165Z,8.18
2022-12-20T02:44:26.018Z,6.55
2022-12-20T02:46:54.329Z,5.53
2022-12-20T02:49:24.156Z,7.38
2022-12-20T02:51:52.979Z,6.55
2022-12-20T02:54:19.741Z,7.38
2022-12-20T02:56:52.441Z,6.70
2022-12-20T02:59:24.787Z,9.38
2022-12-20T03:01:54.479Z,6.25
2022-12-20T03:04:26.507Z,10.70
2022-12-20T03:07:13.524Z,6.25
2022-12-20T03:09:42.806Z,6.70
2022-12-20T03:12:11.042Z,9.48
2022-12-20T03:14:40.678Z,5.70
2022-12-20T03:17:07.838Z,8.18
2022-12-20T03:19:34.948Z,7.30
2022-12-20T03:22:01.597Z,7.25
2022-12-20T03:24:28.002Z,6.40
2022-12-20T03:26:54.336Z,6.88
2022-12-20T03:29:20.672Z,5.10
2022-12-20T03:31:46.998Z,8.35
2022-12-20T03:34:13.371Z,7.32
2022-12-20T03:36:39.700Z,6.30
2022-12-20T03:39:06.281Z,5.97
2022-12-20T03:41:32.610Z,6.28
2022-12-20T03:43:58.969Z,5.93
2022-12-20T03:46:25.503Z,5.60
2022-12-20T03:48:52.216Z,6.70
2022-12-20T03:51:18.557Z,6.40
2022-12-20T03:53:44.924Z,4.88
2022-12-20T03:56:11.284Z,5.55
2022-12-20T03:58:37.602Z,6.70
2022-12-20T04:01:23.799Z,4.40
2022-12-20T04:03:50.605Z,6.28
2022-12-20T04:06:17.692Z,7.05
2022-12-20T04:08:44.149Z,6.32
2022-12-20T04:11:10.826Z,7.05
2022-12-20T04:13:37.145Z,3.97
2022-12-20T04:16:03.710Z,4.72
2022-12-20T04:18:30.058Z,5.38
2022-12-20T04:20:56.406Z,4.95
2022-12-20T04:23:22.753Z,6.20
2022-12-20T04:25:49.105Z,6.93
2022-12-20T04:28:15.466Z,10.25
2022-12-20T04:30:41.823Z,4.45
2022-12-20T04:33:08.146Z,7.07
2022-12-20T04:35:34.667Z,7.03
2022-12-20T04:38:01.074Z,6.63
2022-12-20T04:40:27.416Z,5.57
2022-12-20T04:42:53.768Z,9.75
2022-12-20T04:45:20.204Z,7.25
2022-12-20T04:47:46.569Z,8.90
2022-12-20T04:50:12.949Z,11.43
2022-12-20T04:52:45.548Z,9.55
2022-12-20T04:55:13.894Z,9.45
2022-12-20T04:57:40.241Z,10.68
2022-12-20T05:00:07.320Z,11.98
2022-12-20T05:02:33.731Z,11.65
2022-12-20T05:05:00.162Z,7.75
2022-12-20T05:07:26.509Z,11.43
2022-12-20T05:09:52.874Z,10.57
2022-12-20T05:12:19.191Z,7.82
2022-12-20T05:14:45.561Z,9.75
2022-12-20T05:17:11.883Z,8.98
2022-12-20T05:19:38.214Z,12.98
2022-12-20T05:22:04.680Z,10.15
2022-12-20T05:24:31.021Z,14.25
2022-12-20T05:26:57.382Z,9.65
2022-12-20T05:29:23.776Z,11.05
2022-12-20T05:31:50.253Z,11.48
2022-12-20T05:34:16.800Z,11.23
2022-12-20T05:36:43.749Z,12.98
2022-12-20T05:39:10.104Z,10.30
2022-12-20T05:41:36.444Z,9.13
2022-12-20T05:44:03.203Z,14.13
2022-12-20T05:46:29.623Z,14.50
2022-12-20T05:48:56.021Z,10.68
2022-12-20T05:51:22.410Z,9.48
2022-12-20T05:53:48.795Z,10.82
2022-12-20T05:56:15.194Z,12.25
2022-12-20T05:58:41.577Z,9.95
2022-12-20T06:01:08.944Z,13.30
2022-12-20T06:03:35.389Z,12.43
2022-12-20T06:06:01.814Z,12.20
2022-12-20T06:08:28.266Z,13.18
2022-12-20T06:10:54.745Z,15.50
2022-12-20T06:13:21.104Z,13.65
2022-12-20T06:15:47.555Z,19.73
2022-12-20T06:18:14.232Z,13.13
2022-12-20T06:20:40.593Z,14.20
2022-12-20T06:23:07.001Z,14.32
2022-12-20T06:25:33.514Z,11.55
2022-12-20T06:27:59.880Z,15.73
2022-12-20T06:30:31.830Z,11.05
2022-12-20T06:33:00.206Z,11.90
2022-12-20T06:35:26.558Z,13.10
2022-12-20T06:37:52.913Z,12.68
2022-12-20T06:40:19.420Z,10.68
2022-12-20T06:42:45.863Z,12.95
2022-12-20T06:45:12.412Z,14.88
2022-12-20T06:47:38.732Z,14.20
2022-12-20T06:50:05.966Z,13.77
2022-12-20T06:52:32.303Z,13.20
2022-12-20T06:54:58.831Z,11.25
2022-12-20T06:57:25.228Z,13.75
2022-12-20T06:59:51.643Z,14.13
2022-12-20T07:02:18.096Z,11.18
2022-12-20T07:04:44.592Z,10.70
2022-12-20T07:07:13.313Z,12.50
2022-12-20T07:09:40.030Z,11.25
2022-12-20T07:12:07.043Z,14.13
2022-12-20T07:14:33.402Z,11.38
2022-12-20T07:16:59.913Z,11.95
2022-12-20T07:19:26.407Z,16.65
2022-12-20T07:21:52.724Z,11.70
2022-12-20T07:24:19.136Z,14.48
2022-12-20T07:26:45.508Z,13.20
2022-12-20T07:29:15.611Z,11.98
2022-12-20T07:31:42.773Z,13.32
2022-12-20T07:34:10.749Z,18.80
2022-12-20T07:36:37.138Z,18.15
2022-12-20T07:39:03.856Z,16.02
2022-12-20T07:41:30.211Z,16.13
2022-12-20T07:43:56.571Z,21.55
2022-12-20T07:46:23.073Z,25.88
2022-12-20T07:48:49.539Z,27.08
2022-12-20T07:51:21.023Z,28.70
2022-12-20T07:53:53.504Z,33.17
2022-12-20T07:56:21.441Z,31.80
2022-12-20T07:58:51.755Z,33.08
2022-12-20T08:01:18.339Z,31.60
2022-12-20T08:03:49.173Z,28.90
2022-12-20T08:06:16.934Z,32.53
2022-12-20T08:08:49.048Z,34.30
2022-12-20T08:11:17.896Z,30.80
2022-12-20T08:13:46.822Z,39.30
2022-12-20T08:16:14.437Z,34.83
2022-12-20T08:18:40.828Z,32.95
2022-12-20T08:21:07.906Z,39.67
2022-12-20T08:23:34.629Z,39.70
2022-12-20T08:26:01.765Z,39.45
2022-12-20T08:28:28.102Z,43.53
2022-12-20T08:31:01.478Z,40.10
2022-12-20T08:33:27.995Z,42.47
2022-12-20T08:36:03.308Z,39.75
2022-12-20T08:38:29.872Z,37.13
2022-12-20T08:40:56.858Z,38.72
2022-12-20T08:43:23.211Z,39.33
2022-12-20T08:45:56.092Z,39.63
2022-12-20T08:48:23.222Z,36.83
2022-12-20T08:51:07.503Z,41.63
2022-12-20T08:53:35.558Z,43.57
2022-12-20T08:56:07.828Z,40.35
2022-12-20T08:58:34.804Z,42.58
2022-12-20T09:01:06.400Z,39.53
2022-12-20T09:03:34.220Z,42.33
2022-12-20T09:06:01.100Z,38.67
2022-12-20T09:08:27.728Z,37.80
2022-12-20T09:10:54.209Z,41.95
2022-12-20T09:13:20.556Z,40.92
2022-12-20T09:15:46.955Z,40.33
2022-12-20T09:18:13.323Z,38.35
2022-12-20T09:20:44.151Z,38.30
2022-12-20T09:23:10.496Z,38.50
2022-12-20T09:25:36.835Z,31.20
2022-12-20T09:28:05.254Z,40.60
2022-12-20T09:30:31.721Z,28.25
2022-12-20T09:32:58.072Z,17.58
2022-12-20T09:35:36.000Z,16.27
2022-12-20T09:38:02.393Z,11.90
2022-12-20T09:40:31.833Z,9.82
2022-12-20T09:42:58.997Z,14.35
2022-12-20T09:45:32.439Z,12.73
2022-12-20T09:47:58.784Z,11.35
2022-12-20T09:50:43.323Z,8.40
2022-12-20T09:53:19.509Z,9.27
2022-12-20T09:56:03.392Z,9.30
2022-12-20T09:58:36.634Z,8.32
2022-12-20T10:01:21.424Z,10.85
2022-12-20T10:03:51.971Z,11.95
2022-12-20T10:06:28.984Z,8.88
2022-12-20T10:09:00.535Z,10.82
2022-12-20T10:11:50.515Z,9.15
2022-12-20T10:14:36.244Z,8.02
2022-12-20T10:20:02.080Z,10.07
2022-12-20T10:22:54.292Z,9.00
2022-12-20T10:25:29.212Z,26.65
2022-12-20T10:30:26.393Z,54.85
2022-12-20T10:32:55.287Z,11.75
2022-12-20T10:35:37.160Z,11.05
2022-12-20T10:38:10.061Z,23.25
2022-12-20T10:41:18.748Z,23.08
2022-12-20T10:43:27.488Z,14.93
2022-12-20T10:46:06.324Z,8.85
2022-12-20T10:48:32.658Z,7.20
2022-12-20T10:51:05.037Z,7.80
2022-12-20T10:53:32.242Z,9.95
2022-12-20T10:56:21.488Z,8.23
2022-12-20T10:58:59.267Z,8.15
2022-12-20T11:01:29.934Z,9.02
2022-12-20T11:04:00.711Z,5.90
2022-12-20T11:06:40.273Z,5.38
2022-12-20T11:09:27.820Z,7.68
2022-12-20T11:11:58.347Z,8.40
2022-12-20T11:14:25.278Z,8.05
2022-12-20T11:16:53.623Z,7.57
2022-12-20T11:19:41.072Z,9.35
2022-12-20T11:22:31.833Z,7.93
2022-12-20T11:25:16.905Z,10.07
2022-12-20T11:28:05.326Z,11.88
2022-12-20T11:30:53.892Z,6.20
2022-12-20T11:33:41.519Z,7.45
2022-12-20T11:36:16.091Z,10.13
2022-12-20T11:39:01.190Z,9.98
2022-12-20T11:41:54.152Z,9.88
2022-12-20T11:44:32.759Z,7.53
2022-12-20T11:47:27.359Z,6.90
2022-12-20T11:50:08.589Z,10.00
2022-12-20T11:52:38.966Z,10.40
2022-12-20T11:55:28.326Z,7.05
2022-12-20T12:00:53.162Z,8.82
2022-12-20T12:06:06.177Z,9.05
2022-12-20T12:08:47.978Z,9.15
2022-12-20T12:12:04.712Z,6.82
2022-12-20T12:14:06.182Z,8.50
2022-12-20T12:16:41.464Z,7.28
2022-12-20T12:19:10.669Z,10.30
2022-12-20T12:21:52.277Z,7.13
2022-12-20T12:24:26.559Z,8.65
2022-12-20T12:26:53.308Z,8.50
2022-12-20T12:29:20.759Z,7.40
2022-12-20T12:31:58.090Z,7.63
2022-12-20T12:34:36.210Z,6.85
2022-12-20T12:37:26.564Z,5.25
2022-12-20T12:40:17.849Z,8.23
2022-12-20T12:43:21.121Z,6.80
2022-12-20T12:45:52.787Z,8.00
2022-12-20T12:48:37.840Z,7.95
2022-12-20T12:51:05.578Z,8.82
2022-12-20T12:53:49.207Z,10.13
2022-12-20T12:56:45.609Z,9.27
2022-12-20T12:59:12.319Z,7.90
2022-12-20T13:01:54.171Z,8.95
2022-12-20T13:04:20.749Z,8.95
2022-12-20T13:06:47.008Z,7.22
2022-12-20T13:09:21.352Z,7.53
2022-12-20T13:11:53.732Z,7.43
2022-12-20T13:14:26.778Z,10.32
2022-12-20T13:17:12.021Z,6.90
2022-12-20T13:19:39.673Z,9.35
2022-12-20T13:22:06.007Z,7.97
2022-12-20T13:24:37.616Z,9.02
2022-12-20T13:27:32.229Z,7.88
2022-12-20T13:30:04.275Z,7.82
2022-12-20T13:32:49.023Z,7.28
2022-12-20T13:35:24.588Z,9.75
2022-12-20T13:38:05.974Z,7.10
2022-12-20T13:40:41.812Z,14.02
2022-12-20T13:43:24.034Z,7.47
2022-12-20T13:46:14.672Z,7.65
2022-12-20T13:48:52.073Z,10.68
2022-12-20T13:51:21.107Z,8.25
2022-12-20T13:54:25.006Z,5.93
2022-12-20T13:56:53.404Z,7.75
2022-12-20T13:59:25.363Z,10.38
2022-12-20T14:01:55.093Z,8.73
2022-12-20T14:04:21.660Z,6.22
2022-12-20T14:06:58.235Z,7.63
2022-12-20T14:09:37.183Z,8.20
2022-12-20T14:12:12.647Z,7.90
2022-12-20T14:14:43.980Z,8.32
2022-12-20T14:17:16.435Z,7.88
2022-12-20T14:19:43.608Z,11.60
2022-12-20T14:22:13.555Z,9.80
2022-12-20T14:24:43.667Z,6.65
2022-12-20T14:27:14.442Z,4.72
2022-12-20T14:29:40.761Z,8.15
2022-12-20T14:32:20.428Z,6.60
2022-12-20T14:34:47.657Z,6.05
2022-12-20T14:37:23.725Z,7.30
2022-12-20T14:40:02.159Z,9.13
2022-12-20T14:42:34.217Z,5.28
2022-12-20T14:45:09.443Z,5.78
2022-12-20T14:47:37.598Z,5.35
2022-12-20T14:50:13.812Z,4.78
2022-12-20T14:52:42.026Z,4.93
2022-12-20T14:55:19.020Z,5.55
2022-12-20T14:57:48.652Z,7.85
2022-12-20T15:00:17.968Z,10.90
2022-12-20T15:02:56.981Z,6.22
2022-12-20T15:05:40.995Z,5.40
2022-12-20T15:08:23.782Z,7.68
2022-12-20T15:10:54.361Z,5.00
2022-12-20T15:13:25.424Z,5.50
2022-12-20T15:15:51.763Z,4.53
2022-12-20T15:18:20.480Z,4.60
2022-12-20T15:21:01.312Z,5.72
2022-12-20T15:23:27.801Z,6.45
2022-12-20T15:25:54.099Z,6.18
2022-12-20T15:28:24.120Z,6.30
2022-12-20T15:30:51.901Z,7.15
2022-12-20T15:33:25.018Z,5.35
2022-12-20T15:35:52.550Z,4.32
2022-12-20T15:38:35.067Z,6.88
2022-12-20T15:41:17.640Z,8.52
2022-12-20T15:43:44.154Z,7.82
2022-12-20T15:46:10.735Z,5.30
2022-12-20T15:48:37.152Z,8.82
2022-12-20T15:51:16.229Z,7.63
2022-12-20T15:53:42.564Z,7.03
2022-12-20T15:56:17.057Z,9.35
2022-12-20T15:58:43.389Z,8.38
2022-12-20T16:01:13.983Z,9.55
2022-12-20T16:03:40.450Z,9.00
2022-12-20T16:06:10.747Z,12.68
2022-12-20T16:08:37.060Z,10.20
2022-12-20T16:11:06.270Z,11.23
2022-12-20T16:13:33.644Z,11.35
2022-12-20T16:16:00.044Z,12.02
2022-12-20T16:18:30.132Z,12.45
2022-12-20T16:21:00.687Z,11.38
2022-12-20T16:23:27.023Z,11.27
2022-12-20T16:25:53.320Z,8.60
2022-12-20T16:28:19.680Z,14.95
2022-12-20T16:30:52.692Z,10.68
2022-12-20T16:33:20.971Z,10.27
2022-12-20T16:35:47.583Z,11.25
2022-12-20T16:38:14.008Z,10.95
2022-12-20T16:40:40.337Z,11.75
2022-12-20T16:43:13.741Z,11.30
2022-12-20T16:45:40.060Z,10.10
2022-12-20T16:48:06.502Z,8.93
2022-12-20T16:50:32.819Z,12.73
2022-12-20T16:52:59.139Z,10.40
2022-12-20T16:55:27.433Z,10.48
2022-12-20T16:57:54.165Z,12.60
2022-12-20T17:00:22.375Z,13.13
2022-12-20T17:02:49.899Z,13.10
2022-12-20T17:05:23.093Z,11.65
2022-12-20T17:07:49.670Z,12.48
2022-12-20T17:10:16.245Z,10.85
2022-12-20T17:12:42.745Z,16.80
2022-12-20T17:15:18.720Z,11.30
2022-12-20T17:17:45.032Z,13.02
2022-12-20T17:20:12.251Z,11.15
2022-12-20T17:25:33.390Z,11.97
2022-12-20T17:27:59.714Z,13.85
2022-12-20T17:30:26.284Z,8.88
2022-12-20T17:32:53.792Z,15.30
2022-12-20T17:35:25.815Z,10.50
2022-12-20T17:37:52.136Z,14.52
2022-12-20T17:40:18.585Z,12.07
2022-12-20T17:42:45.294Z,17.17
2022-12-20T17:45:27.223Z,14.85
2022-12-20T17:47:54.536Z,13.30
2022-12-20T17:50:21.772Z,12.43
2022-12-20T17:52:48.392Z,11.57
2022-12-20T17:55:23.694Z,12.27
2022-12-20T17:57:50.089Z,11.05
2022-12-20T18:00:39.501Z,18.00
2022-12-20T18:03:06.796Z,13.63
2022-12-20T18:05:33.226Z,12.40
2022-12-20T18:07:59.555Z,11.73
2022-12-20T18:10:25.843Z,15.13
2022-12-20T18:12:52.151Z,10.90
2022-12-20T18:15:18.574Z,11.43
2022-12-20T18:17:44.961Z,10.10
2022-12-20T18:20:11.933Z,10.65
2022-12-20T18:22:38.263Z,10.77
2022-12-20T18:25:05.338Z,11.88
2022-12-20T18:27:31.658Z,14.05
2022-12-20T18:29:57.970Z,10.18
2022-12-20T18:32:24.330Z,12.27
2022-12-20T18:34:50.631Z,16.27
2022-12-20T18:37:16.976Z,13.02
2022-12-20T18:39:43.273Z,16.00
2022-12-20T18:42:09.600Z,15.63
2022-12-20T18:44:36.152Z,13.07
2022-12-20T18:47:02.956Z,10.88
2022-12-20T18:49:29.670Z,15.98
2022-12-20T18:51:56.006Z,17.85
2022-12-20T18:54:22.302Z,15.38
2022-12-20T18:56:49.124Z,15.65
2022-12-20T18:59:15.502Z,11.88
2022-12-20T19:01:42.640Z,13.75
2022-12-20T19:04:09.804Z,13.30
2022-12-20T19:06:36.966Z,13.98
2022-12-20T19:09:07.043Z,12.02
2022-12-20T19:11:33.822Z,12.25
2022-12-20T19:14:00.377Z,12.68
2022-12-20T19:16:29.016Z,15.05
2022-12-20T19:18:55.363Z,12.45
2022-12-20T19:21:24.905Z,14.07
2022-12-20T19:23:54.250Z,15.70
2022-12-20T19:26:22.797Z,14.98
2022-12-20T19:28:49.617Z,15.98
2022-12-20T19:31:21.896Z,13.80
2022-12-20T19:33:49.714Z,14.27
2022-12-20T19:36:22.516Z,17.15
2022-12-20T19:38:51.285Z,15.02
2022-12-20T19:41:19.558Z,18.30
2022-12-20T19:43:49.604Z,14.55
2022-12-20T19:46:15.996Z,20.33
2022-12-20T19:48:42.373Z,25.80
2022-12-20T19:51:15.107Z,29.98
2022-12-20T19:53:43.728Z,25.33
2022-12-20T19:56:12.630Z,29.17
2022-12-20T19:58:39.556Z,26.08
2022-12-20T20:01:07.669Z,23.02
2022-12-20T20:03:35.743Z,26.02
2022-12-20T20:06:03.330Z,28.75
2022-12-20T20:08:29.649Z,29.73
2022-12-20T20:10:57.895Z,24.35
2022-12-20T20:13:25.224Z,27.52
2022-12-20T20:15:53.945Z,29.73
2022-12-20T20:18:20.853Z,28.02
2022-12-20T20:20:47.187Z,24.40
2022-12-20T20:23:14.511Z,32.25
2022-12-20T20:25:45.839Z,28.33
2022-12-20T20:28:12.290Z,31.52
2022-12-20T20:30:46.872Z,31.65
2022-12-20T20:33:13.515Z,34.60
2022-12-20T20:35:39.961Z,28.38
2022-12-20T20:38:07.087Z,29.77
2022-12-20T20:40:33.862Z,32.75
2022-12-20T20:43:00.651Z,28.90
2022-12-20T20:45:26.959Z,31.35
2022-12-20T20:47:53.268Z,33.55
2022-12-20T20:50:19.561Z,33.38
2022-12-20T20:52:45.962Z,32.17
2022-12-20T20:55:12.327Z,31.02
2022-12-20T20:57:38.729Z,29.40
2022-12-20T21:00:06.734Z,30.10
2022-12-20T21:02:33.238Z,30.95
2022-12-20T21:05:52.541Z,37.65
2022-12-20T21:07:46.023Z,30.80
2022-12-20T21:10:12.679Z,28.73
2022-12-20T21:12:39.247Z,31.02
2022-12-20T21:15:22.496Z,29.98
2022-12-20T21:17:49.824Z,28.75
2022-12-20T21:20:18.394Z,27.70
2022-12-20T21:22:48.484Z,29.25
2022-12-20T21:25:14.802Z,27.35
2022-12-20T21:27:41.149Z,33.75
2022-12-20T21:30:08.021Z,31.92
2022-12-20T21:32:34.391Z,32.22
2022-12-20T21:35:00.753Z,26.60
2022-12-20T21:37:29.849Z,30.67
2022-12-20T21:39:56.158Z,31.55
2022-12-20T21:42:22.705Z,30.73
2022-12-20T21:44:48.996Z,28.65
2022-12-20T21:47:15.317Z,29.42
2022-12-20T21:49:41.623Z,30.45
2022-12-20T21:52:07.950Z,26.55
2022-12-20T21:54:34.293Z,27.02
2022-12-20T21:57:00.642Z,30.58
2022-12-20T21:59:27.021Z,25.25
2022-12-20T22:01:53.575Z,30.40
2022-12-20T22:04:20.093Z,28.20
2022-12-20T22:06:46.421Z,30.25
2022-12-20T22:09:12.758Z,27.25
2022-12-20T22:11:39.751Z,25.38
2022-12-20T22:14:06.577Z,24.17
2022-12-20T22:16:33.209Z,24.67
2022-12-20T22:18:59.683Z,23.42
2022-12-20T22:21:28.554Z,21.33
2022-12-20T22:23:55.628Z,24.55
2022-12-20T22:26:24.704Z,29.02
2022-12-20T22:28:59.821Z,23.42
2022-12-20T22:31:26.585Z,26.73
2022-12-20T22:33:54.259Z,24.88
2022-12-20T22:36:21.313Z,25.05
2022-12-20T22:38:47.622Z,29.10
2022-12-20T22:41:15.289Z,25.77
2022-12-20T22:43:42.580Z,26.35
2022-12-20T22:46:09.181Z,25.42
2022-12-20T22:48:35.598Z,28.15
2022-12-20T22:51:05.259Z,24.15
2022-12-20T22:53:33.164Z,26.83
2022-12-20T22:55:59.905Z,27.35
2022-12-20T22:58:27.184Z,26.20
2022-12-20T23:01:01.767Z,34.90
2022-12-20T23:03:29.458Z,23.98
2022-12-20T23:06:01.219Z,26.38
2022-12-20T23:08:29.884Z,27.60
2022-12-20T23:10:56.303Z,25.08
2022-12-20T23:13:22.626Z,31.73
2022-12-20T23:15:48.937Z,28.45
2022-12-20T23:18:15.273Z,24.65
2022-12-20T23:20:41.602Z,24.23
2022-12-20T23:23:09.002Z,23.35
2022-12-20T23:25:35.723Z,25.73
2022-12-20T23:28:02.035Z,27.33
2022-12-20T23:30:28.547Z,27.58
2022-12-20T23:32:54.863Z,29.00
2022-12-20T23:35:21.263Z,25.75
2022-12-20T23:37:47.941Z,27.42
2022-12-20T23:40:15.917Z,29.63
2022-12-20T23:42:42.611Z,26.55
2022-12-20T23:45:09.513Z,32.40
2022-12-20T23:47:36.105Z,29.25
2022-12-20T23:50:02.680Z,30.80
2022-12-20T23:52:29.050Z,29.05
2022-12-20T23:54:55.345Z,28.92
2022-12-20T23:57:21.684Z,26.88
2022-12-20T23:59:47.992Z,29.00
